Terminal Aerodrome Forecast
Issued by NWS

Current Version | Previous Version | Graphics & Text | Print | Product List | Glossary On
Versions: 1 2 3 4 5 6 7 8 9 10 11 12 13 14 15 16 17 18 19 20 21 22 23 24
000
FTUS41 KRNK 200520
TAFLWB
TAF
KLWB 200520Z 2006/2106 VRB03KT 4SM BR SCT050
      TEMPO 2006/2007 1SM BR
     FM200700 18004KT 4SM BR SCT050 WS020/22030KT
     FM201100 20005KT 4SM BR SCT050
     FM201400 20005KT P6SM SCT100=

USA.gov is the U.S. government's official web portal to all federal, state and local government web resources and services.